This is the latest recevied weather packets stored in our database for station/object OE3MHU-13. If no packets are shown the sender has not sent any weather packets the latest 10 day(s).
| Time | Temp. | Humidity | Pressure | Rain* | Wind** | Luminosity | Snow |
|---|---|---|---|---|---|---|---|
| 1777926808 | 21.67° C | 44% | 1012.2 hPa | 0 mm | - | - | - |
| 1777925905 | 21.67° C | 43% | 1012.2 hPa | 0 mm | - | - | - |
| 1777925605 | 21.67° C | 43% | 1012.4 hPa | 0 mm | - | - | - |
| 1777925306 | 21.67° C | 43% | 1012.3 hPa | 0 mm | - | - | - |
| 1777924705 | 21.11° C | 44% | 1012.4 hPa | 0 mm | - | - | - |
| 1777924399 | 21.11° C | 44% | 1012.4 hPa | 0 mm | - | - | - |
| 1777923486 | 21.67° C | 44% | 1012.5 hPa | 0 mm | - | - | - |
| 1777923285 | 21.67° C | 43% | 1012.5 hPa | 0 mm | - | - | - |
| 1777922559 | 21.67° C | 43% | 1012.5 hPa | 0 mm | - | - | - |
| 1777922253 | 21.67° C | 43% | 1012.5 hPa | 0 mm | - | - | - |
| 1777921947 | 21.67° C | 43% | 1012.5 hPa | 0 mm | - | - | - |
| 1777921641 | 21.67° C | 43% | 1012.5 hPa | 0 mm | - | - | - |
| 1777919805 | 22.22° C | 41% | 1012.5 hPa | 0 mm | - | - | - |
| 1777918581 | 22.78° C | 38% | 1012.4 hPa | 0 mm | - | - | - |
| 1777913379 | 25° C | 33% | 1012.5 hPa | 0 mm | - | - | - |
| 1777912767 | 25.56° C | 32% | 1012.4 hPa | 0 mm | - | - | - |
| 1777912461 | 25.56° C | 32% | 1012.6 hPa | 0 mm | - | - | - |
| 1777911543 | 25.56° C | 32% | 1012.6 hPa | 0 mm | - | - | - |
| 1777910931 | 26.11° C | 33% | 1012.6 hPa | 0 mm | - | - | - |
| 1777910625 | 26.11° C | 32% | 1012.7 hPa | 0 mm | - | - | - |
| 1777910319 | 26.11° C | 32% | 1012.6 hPa | 0 mm | - | - | - |
| 1777910014 | 26.11° C | 33% | 1012.8 hPa | 0 mm | - | - | - |
| 1777909706 | 26.11° C | 33% | 1012.8 hPa | 0 mm | - | - | - |
| 1777909402 | 26.11° C | 32% | 1012.8 hPa | 0 mm | - | - | - |
| 1777909096 | 26.11° C | 33% | 1012.9 hPa | 0 mm | - | - | - |
* Rain latest hour (hover to see other rain measurements)
** Current wind speed in m/s (hover to see current wind gust speed)